createdAt,value
2019-03-01T00:02:28.610Z,97321.61
2019-03-01T00:05:40.953Z,97327.03
2019-03-01T00:08:19.252Z,97328.09
2019-03-01T00:11:12.278Z,97322.66
2019-03-01T00:14:20.468Z,97310.47
2019-03-01T00:17:33.871Z,97316.12
2019-03-01T00:20:31.522Z,97313.13
2019-03-01T00:23:41.844Z,97311.50
2019-03-01T00:26:24.248Z,97308.52
2019-03-01T00:29:36.883Z,97302.30
2019-03-01T00:32:30.475Z,97305.81
2019-03-01T00:35:54.347Z,97316.11
2019-03-01T00:38:50.529Z,97305.00
2019-03-01T00:42:01.809Z,97309.34
2019-03-01T00:44:41.341Z,97302.02
2019-03-01T00:47:08.169Z,97307.71
2019-03-01T00:49:34.961Z,97300.67
2019-03-01T00:52:01.778Z,97300.67
2019-03-01T00:54:28.498Z,97305.81
2019-03-01T00:56:55.210Z,97305.27
2019-03-01T00:59:21.880Z,97300.66
2019-03-01T01:01:48.536Z,97299.56
2019-03-01T01:04:15.245Z,97304.98
2019-03-01T01:06:41.938Z,97291.17
2019-03-01T01:09:08.768Z,97293.88
2019-03-01T01:11:35.437Z,97282.78
2019-03-01T01:14:02.273Z,97279.54
2019-03-01T01:16:29.039Z,97278.45
2019-03-01T01:18:55.717Z,97281.98
2019-03-01T01:21:22.302Z,97280.91
2019-03-01T01:23:48.961Z,97280.64
2019-03-01T01:26:15.806Z,97276.30
2019-03-01T01:28:42.465Z,97277.39
2019-03-01T01:31:09.281Z,97271.16
2019-03-01T01:33:35.985Z,97271.97
2019-03-01T01:36:02.660Z,97285.23
2019-03-01T01:38:29.322Z,97278.19
2019-03-01T01:40:55.917Z,97270.34
2019-03-01T01:43:22.524Z,97266.81
2019-03-01T01:45:49.299Z,97266.00
2019-03-01T01:48:16.131Z,97257.61
2019-03-01T01:50:42.850Z,97251.92
2019-03-01T01:53:09.507Z,97252.20
2019-03-01T01:55:36.160Z,97246.52
2019-03-01T01:58:02.961Z,97245.75
2019-03-01T02:00:29.631Z,97236.49
2019-03-01T02:02:56.552Z,97238.16
2019-03-01T02:05:23.210Z,97235.69
2019-03-01T02:07:49.859Z,97232.97
2019-03-01T02:10:16.781Z,97230.25
2019-03-01T02:12:43.521Z,97222.69
2019-03-01T02:15:12.543Z,97219.44
2019-03-01T02:17:39.169Z,97214.56
2019-03-01T02:20:07.147Z,97212.13
2019-03-01T02:22:33.802Z,97205.33
2019-03-01T02:25:00.513Z,97203.71
2019-03-01T02:27:28.399Z,97198.58
2019-03-01T02:29:55.353Z,97211.31
2019-03-01T02:32:42.875Z,97210.27
2019-03-01T02:35:11.558Z,97204.31
2019-03-01T02:37:38.242Z,97201.84
2019-03-01T02:40:06.417Z,97205.41
2019-03-01T02:42:33.063Z,97208.38
2019-03-01T02:44:59.769Z,97203.53
2019-03-01T02:47:26.336Z,97204.34
2019-03-01T02:49:53.020Z,97192.42
2019-03-01T02:52:19.567Z,97197.03
2019-03-01T02:54:46.216Z,97196.22
2019-03-01T02:57:12.848Z,97191.36
2019-03-01T02:59:39.391Z,97195.70
2019-03-01T03:02:06.077Z,97193.03
2019-03-01T03:04:32.949Z,97194.94
2019-03-01T03:07:17.015Z,97196.02
2019-03-01T03:09:43.671Z,97194.67
2019-03-01T03:12:10.318Z,97183.84
2019-03-01T03:14:37.071Z,97184.39
2019-03-01T03:17:03.718Z,97176.28
2019-03-01T03:19:30.297Z,97178.44
2019-03-01T03:21:56.840Z,97168.96
2019-03-01T03:24:23.401Z,97170.58
2019-03-01T03:26:50.059Z,97170.05
2019-03-01T03:29:16.746Z,97163.01
2019-03-01T03:31:43.453Z,97174.11
2019-03-01T03:34:10.259Z,97177.34
2019-03-01T03:36:36.818Z,97172.76
2019-03-01T03:39:05.229Z,97177.09
2019-03-01T03:41:31.982Z,97177.95
2019-03-01T03:43:58.611Z,97176.06
2019-03-01T03:46:25.565Z,97176.59
2019-03-01T03:48:52.195Z,97172.55
2019-03-01T03:51:18.836Z,97172.28
2019-03-01T03:53:45.428Z,97165.52
2019-03-01T03:56:12.154Z,97167.14
2019-03-01T03:58:38.826Z,97163.09
2019-03-01T04:01:05.483Z,97160.92
2019-03-01T04:03:32.242Z,97162.55
2019-03-01T04:05:59.260Z,97159.30
2019-03-01T04:08:26.018Z,97154.70
2019-03-01T04:10:52.543Z,97155.78
2019-03-01T04:13:19.095Z,97153.62
2019-03-01T04:15:45.924Z,97154.16
2019-03-01T04:18:12.568Z,97147.70
2019-03-01T04:20:39.181Z,97145.23
2019-03-01T04:23:05.837Z,97140.67
2019-03-01T04:25:32.519Z,97144.47
2019-03-01T04:27:59.069Z,97140.41
2019-03-01T04:30:25.773Z,97135.55
2019-03-01T04:32:53.529Z,97129.59
2019-03-01T04:35:20.951Z,97123.91
2019-03-01T04:37:47.755Z,97122.84
2019-03-01T04:40:14.648Z,97127.70
2019-03-01T04:42:41.308Z,97119.32
2019-03-01T04:45:09.095Z,97124.73
2019-03-01T04:47:35.866Z,97120.67
2019-03-01T04:50:03.121Z,97117.42
2019-03-01T04:52:34.332Z,97114.73
2019-03-01T04:55:01.113Z,97113.91
2019-03-01T04:57:27.787Z,97118.52
2019-03-01T04:59:54.424Z,97112.83
2019-03-01T05:02:21.122Z,97109.05
2019-03-01T05:04:47.826Z,97116.08
2019-03-01T05:07:14.694Z,97106.62
2019-03-01T05:09:41.398Z,97113.11
2019-03-01T05:12:08.070Z,97112.30
2019-03-01T05:14:34.634Z,97114.45
2019-03-01T05:17:01.273Z,97108.80
2019-03-01T05:19:27.829Z,97107.45
2019-03-01T05:21:54.530Z,97101.21
2019-03-01T05:24:21.311Z,97106.34
2019-03-01T05:26:47.945Z,97106.61
2019-03-01T05:29:14.617Z,97109.59
2019-03-01T05:31:41.268Z,97105.00
2019-03-01T05:34:07.969Z,97096.34
2019-03-01T05:36:34.721Z,97099.86
2019-03-01T05:39:01.260Z,97096.10
2019-03-01T05:41:27.985Z,97098.53
2019-03-01T05:43:54.661Z,97098.80
2019-03-01T05:46:21.482Z,97102.05
2019-03-01T05:48:48.482Z,97092.05
2019-03-01T05:51:15.252Z,97092.05
2019-03-01T05:53:41.912Z,97089.08
2019-03-01T05:56:08.455Z,97087.73
2019-03-01T05:58:41.379Z,97083.41
2019-03-01T06:01:15.112Z,97086.65
2019-03-01T06:04:06.927Z,97087.73
2019-03-01T06:07:10.992Z,97091.78
2019-03-01T06:10:44.366Z,97088.27
2019-03-01T06:14:02.079Z,97085.84
2019-03-01T06:16:58.631Z,97084.75
2019-03-01T06:20:12.667Z,97083.13
2019-03-01T06:23:39.510Z,97081.24
2019-03-01T06:26:36.181Z,97073.13
2019-03-01T06:29:48.382Z,97076.89
2019-03-01T06:32:54.437Z,97074.48
2019-03-01T06:36:01.303Z,97078.27
2019-03-01T06:39:12.334Z,97084.21
2019-03-01T06:42:27.304Z,97074.75
2019-03-01T06:45:17.116Z,97075.30
2019-03-01T06:47:46.883Z,97082.05
2019-03-01T06:50:35.863Z,97075.58
2019-03-01T06:53:02.632Z,97077.17
2019-03-01T06:55:37.860Z,97075.83
2019-03-01T06:58:06.075Z,97076.64
2019-03-01T07:00:37.331Z,97077.45
2019-03-01T07:03:04.123Z,97080.70
2019-03-01T07:05:30.740Z,97073.41
2019-03-01T07:07:57.437Z,97071.78
2019-03-01T07:10:23.980Z,97071.48
2019-03-01T07:12:50.638Z,97076.63
2019-03-01T07:15:17.272Z,97073.38
2019-03-01T07:17:43.919Z,97080.40
2019-03-01T07:20:12.631Z,97078.77
2019-03-01T07:22:39.265Z,97079.31
2019-03-01T07:25:05.911Z,97073.36
2019-03-01T07:27:32.506Z,97075.52
2019-03-01T07:29:59.051Z,97067.14
2019-03-01T07:32:25.860Z,97069.84
2019-03-01T07:34:52.501Z,97073.35
2019-03-01T07:37:19.144Z,97067.41
2019-03-01T07:39:45.679Z,97061.45
2019-03-01T07:42:12.233Z,97061.11
2019-03-01T07:44:38.869Z,97058.92
2019-03-01T07:47:05.419Z,97056.42
2019-03-01T07:49:32.057Z,97055.59
2019-03-01T07:52:01.736Z,97054.48
2019-03-01T07:54:27.142Z,97050.13
2019-03-01T07:56:53.702Z,97050.45
2019-03-01T07:59:20.237Z,97053.70
2019-03-01T08:01:46.895Z,97047.17
2019-03-01T08:04:13.449Z,97047.34
2019-03-01T08:06:40.137Z,97047.27
2019-03-01T08:09:10.900Z,97048.55
2019-03-01T08:11:37.442Z,97043.75
2019-03-01T08:14:04.333Z,97041.11
2019-03-01T08:16:30.924Z,97035.29
2019-03-01T08:18:57.694Z,97043.05
2019-03-01T08:21:24.449Z,97044.78
2019-03-01T08:23:50.992Z,97039.44
2019-03-01T08:26:17.633Z,97030.31
2019-03-01T08:28:44.350Z,97035.59
2019-03-01T08:31:11.078Z,97033.22
2019-03-01T08:33:42.138Z,97027.14
2019-03-01T08:36:07.202Z,97036.47
2019-03-01T08:38:33.942Z,97041.34
2019-03-01T08:41:00.510Z,97032.90
2019-03-01T08:43:27.044Z,97037.36
2019-03-01T08:45:53.719Z,97039.09
2019-03-01T08:48:20.390Z,97040.77
2019-03-01T08:50:47.091Z,97037.48
2019-03-01T08:53:15.109Z,97038.73
2019-03-01T08:55:42.266Z,97038.70
2019-03-01T08:58:08.988Z,97033.41
2019-03-01T09:00:36.520Z,97029.78
2019-03-01T09:03:16.311Z,97027.38
2019-03-01T09:05:42.709Z,97030.69
2019-03-01T09:08:09.366Z,97029.07
2019-03-01T09:10:36.007Z,97034.52
2019-03-01T09:13:02.765Z,97019.20
2019-03-01T09:15:29.407Z,97022.44
2019-03-01T09:17:56.069Z,97018.54
2019-03-01T09:20:22.750Z,97028.81
2019-03-01T09:22:49.463Z,97021.57
2019-03-01T09:25:16.154Z,97026.39
2019-03-01T09:27:42.795Z,97026.97
2019-03-01T09:30:15.526Z,97024.40
2019-03-01T09:32:42.194Z,97022.09
2019-03-01T09:35:23.166Z,97018.64
2019-03-01T09:37:50.064Z,97013.61
2019-03-01T09:40:16.760Z,97017.21
2019-03-01T09:42:43.405Z,97025.06
2019-03-01T09:45:10.497Z,97022.19
2019-03-01T09:47:38.585Z,97017.80
2019-03-01T09:50:05.799Z,97016.32
2019-03-01T09:52:32.595Z,97012.63
2019-03-01T09:54:59.141Z,97006.41
2019-03-01T09:57:25.857Z,97011.64
2019-03-01T09:59:52.388Z,97005.34
2019-03-01T10:02:19.185Z,97005.43
2019-03-01T10:04:45.797Z,97008.78
2019-03-01T10:07:12.356Z,97009.59
2019-03-01T10:09:39.014Z,97006.27
2019-03-01T10:12:05.572Z,96999.08
2019-03-01T10:14:32.144Z,97005.05
2019-03-01T10:16:58.675Z,97011.67
2019-03-01T10:19:25.393Z,97005.37
2019-03-01T10:21:52.215Z,97003.34
2019-03-01T10:24:18.884Z,97002.00
2019-03-01T10:26:45.526Z,97009.36
2019-03-01T10:29:12.213Z,97003.06
2019-03-01T10:31:38.752Z,97008.95
2019-03-01T10:34:05.392Z,97009.70
2019-03-01T10:36:32.023Z,97009.02
2019-03-01T10:38:58.937Z,97005.47
2019-03-01T10:41:25.661Z,97014.16
2019-03-01T10:43:52.209Z,97006.70
2019-03-01T10:46:18.915Z,97010.23
2019-03-01T10:48:45.451Z,97011.70
2019-03-01T10:51:12.155Z,97013.73
2019-03-01T10:53:38.694Z,97011.56
2019-03-01T10:56:05.361Z,97007.93
2019-03-01T10:58:31.912Z,97013.29
2019-03-01T11:00:58.540Z,97015.06
2019-03-01T11:03:25.184Z,97010.55
2019-03-01T11:05:53.028Z,97012.72
2019-03-01T11:08:19.827Z,97011.69
2019-03-01T11:10:46.560Z,97008.63
2019-03-01T11:13:13.367Z,97006.55
2019-03-01T11:15:39.998Z,97010.39
2019-03-01T11:18:06.648Z,97010.91
2019-03-01T11:20:33.299Z,97011.52
2019-03-01T11:23:00.235Z,97002.59
2019-03-01T11:25:26.972Z,97004.72
2019-03-01T11:27:54.115Z,97014.38
2019-03-01T11:30:22.939Z,97003.34
2019-03-01T11:32:49.569Z,97008.84
2019-03-01T11:35:16.215Z,97013.22
2019-03-01T11:37:42.795Z,97006.97
2019-03-01T11:40:11.992Z,97008.44
2019-03-01T11:42:38.879Z,97013.66
2019-03-01T11:45:06.808Z,97009.83
2019-03-01T11:47:33.357Z,97012.80
2019-03-01T11:49:59.931Z,97014.83
2019-03-01T11:52:26.586Z,97008.86
2019-03-01T11:54:53.380Z,97011.88
2019-03-01T11:57:20.065Z,97010.88
2019-03-01T11:59:46.731Z,97009.52
2019-03-01T12:02:13.293Z,97009.05
2019-03-01T12:04:40.145Z,97011.51
2019-03-01T12:07:06.784Z,97006.23
2019-03-01T12:09:33.412Z,97004.06
2019-03-01T12:11:59.943Z,97009.50
2019-03-01T12:14:26.485Z,97002.95
2019-03-01T12:16:53.114Z,97003.50
2019-03-01T12:19:21.190Z,97002.95
2019-03-01T12:21:48.018Z,97001.78
2019-03-01T12:24:14.691Z,97000.09
2019-03-01T12:26:41.350Z,96992.99
2019-03-01T12:29:07.917Z,96991.63
2019-03-01T12:31:34.751Z,96997.20
2019-03-01T12:34:01.560Z,96994.16
2019-03-01T12:36:28.185Z,96995.30
2019-03-01T12:38:55.059Z,96986.73
2019-03-01T12:41:21.624Z,96990.59
2019-03-01T12:43:48.460Z,96997.20
2019-03-01T12:46:15.115Z,96995.44
2019-03-01T12:48:41.768Z,96999.66
2019-03-01T12:51:08.487Z,96991.46
2019-03-01T12:53:35.943Z,97003.92
2019-03-01T12:56:02.600Z,97013.06
2019-03-01T12:58:29.286Z,97009.30
2019-03-01T13:00:56.000Z,97011.13
2019-03-01T13:03:22.558Z,97016.62
2019-03-01T13:05:50.021Z,97016.13
2019-03-01T13:08:16.825Z,97025.78
2019-03-01T13:10:43.491Z,97024.06
2019-03-01T13:13:10.036Z,97024.59
2019-03-01T13:15:36.696Z,97025.56
2019-03-01T13:18:03.750Z,97026.02
2019-03-01T13:20:30.385Z,97027.38
2019-03-01T13:22:57.056Z,97028.66
2019-03-01T13:25:26.013Z,97028.58
2019-03-01T13:27:53.699Z,97020.97
2019-03-01T13:30:20.812Z,97016.16
2019-03-01T13:32:47.476Z,97018.62
2019-03-01T13:35:16.150Z,97022.49
2019-03-01T13:37:42.659Z,97012.91
2019-03-01T13:40:10.880Z,97013.80
2019-03-01T13:42:37.535Z,97016.14
2019-03-01T13:45:04.552Z,97018.00
2019-03-01T13:47:31.192Z,97013.52
2019-03-01T13:49:57.765Z,97019.46
2019-03-01T13:52:26.781Z,97022.12
2019-03-01T13:54:52.827Z,97026.66
2019-03-01T13:57:20.216Z,97019.02
2019-03-01T13:59:46.848Z,97024.22
2019-03-01T14:02:13.671Z,97030.52
2019-03-01T14:04:41.367Z,97028.27
2019-03-01T14:07:08.126Z,97028.69
2019-03-01T14:09:34.715Z,97033.27
2019-03-01T14:12:01.386Z,97034.05
2019-03-01T14:14:28.376Z,97047.56
2019-03-01T14:16:55.172Z,97043.34
2019-03-01T14:19:21.998Z,97045.94
2019-03-01T14:21:48.555Z,97055.91
2019-03-01T14:24:15.192Z,97057.42
2019-03-01T14:26:41.913Z,97059.14
2019-03-01T14:29:08.453Z,97057.47
2019-03-01T14:31:35.246Z,97055.91
2019-03-01T14:34:01.812Z,97060.42
2019-03-01T14:36:28.559Z,97060.63
2019-03-01T14:38:55.103Z,97060.58
2019-03-01T14:41:21.745Z,97055.68
2019-03-01T14:43:48.643Z,97056.90
2019-03-01T14:46:17.572Z,97062.95
2019-03-01T14:48:46.106Z,97058.49
2019-03-01T14:51:12.984Z,97062.30
2019-03-01T14:53:39.581Z,97063.12
2019-03-01T14:56:13.059Z,97056.88
2019-03-01T14:58:55.932Z,97057.62
2019-03-01T15:01:30.884Z,97049.55
2019-03-01T15:03:57.436Z,97046.45
2019-03-01T15:06:24.166Z,97041.09
2019-03-01T15:08:50.790Z,97042.19
2019-03-01T15:11:19.331Z,97048.97
2019-03-01T15:13:47.337Z,97042.23
2019-03-01T15:16:14.096Z,97052.64
2019-03-01T15:18:41.257Z,97055.45
2019-03-01T15:21:08.958Z,97056.41
2019-03-01T15:23:35.649Z,97056.22
2019-03-01T15:26:02.516Z,97056.44
2019-03-01T15:28:29.189Z,97062.68
2019-03-01T15:30:57.255Z,97066.86
2019-03-01T15:33:24.187Z,97064.38
2019-03-01T15:35:50.909Z,97066.53
2019-03-01T15:38:17.678Z,97062.48
2019-03-01T15:40:44.361Z,97069.91
2019-03-01T15:43:11.004Z,97070.88
2019-03-01T15:45:40.019Z,97077.16
2019-03-01T15:48:06.455Z,97081.44
2019-03-01T15:50:33.199Z,97074.50
2019-03-01T15:52:59.754Z,97078.41
2019-03-01T15:55:26.371Z,97083.31
2019-03-01T15:57:56.336Z,97084.69
2019-03-01T16:00:21.822Z,97085.89
2019-03-01T16:02:50.053Z,97088.06
2019-03-01T16:05:17.081Z,97086.44
2019-03-01T16:07:43.699Z,97089.02
2019-03-01T16:10:10.408Z,97098.33
2019-03-01T16:12:37.042Z,97097.30
2019-03-01T16:15:05.102Z,97094.61
2019-03-01T16:17:31.826Z,97088.21
2019-03-01T16:19:58.356Z,97093.70
2019-03-01T16:22:24.888Z,97098.36
2019-03-01T16:24:51.426Z,97096.19
2019-03-01T16:27:18.074Z,97100.86
2019-03-01T16:29:44.628Z,97110.84
2019-03-01T16:32:11.243Z,97108.19
2019-03-01T16:34:41.255Z,97113.40
2019-03-01T16:37:06.236Z,97121.23
2019-03-01T16:39:32.927Z,97124.26
2019-03-01T16:41:59.446Z,97127.80
2019-03-01T16:44:26.139Z,97134.27
2019-03-01T16:46:52.961Z,97129.71
2019-03-01T16:49:19.723Z,97133.28
2019-03-01T16:51:46.388Z,97136.64
2019-03-01T16:54:16.374Z,97133.41
2019-03-01T16:56:41.706Z,97147.53
2019-03-01T16:59:08.506Z,97145.88
2019-03-01T17:01:35.288Z,97148.88
2019-03-01T17:04:01.931Z,97154.31
2019-03-01T17:06:28.483Z,97163.30
2019-03-01T17:08:55.138Z,97160.62
2019-03-01T17:11:21.777Z,97160.91
2019-03-01T17:13:48.452Z,97162.78
2019-03-01T17:16:15.007Z,97159.00
2019-03-01T17:18:44.671Z,97158.22
2019-03-01T17:21:12.516Z,97159.30
2019-03-01T17:23:39.408Z,97161.73
2019-03-01T17:26:06.977Z,97168.52
2019-03-01T17:28:33.655Z,97172.58
2019-03-01T17:31:00.297Z,97175.61
2019-03-01T17:33:26.973Z,97175.88
2019-03-01T17:35:53.531Z,97176.70
2019-03-01T17:38:22.140Z,97183.75
2019-03-01T17:40:48.797Z,97189.44
2019-03-01T17:43:15.359Z,97194.05
2019-03-01T17:45:41.940Z,97201.09
2019-03-01T17:48:08.516Z,97195.94
2019-03-01T17:50:35.281Z,97199.46
2019-03-01T17:53:06.215Z,97203.81
2019-03-01T17:55:34.459Z,97203.27
2019-03-01T17:58:01.238Z,97203.00
2019-03-01T18:00:33.645Z,97207.88
2019-03-01T18:03:00.476Z,97206.52
2019-03-01T18:05:27.138Z,97210.63
2019-03-01T18:07:53.786Z,97206.03
2019-03-01T18:10:20.501Z,97210.09
2019-03-01T18:12:47.036Z,97214.43
2019-03-01T18:15:13.735Z,97220.12
2019-03-01T18:17:40.397Z,97220.94
2019-03-01T18:20:07.466Z,97219.58
2019-03-01T18:22:34.099Z,97227.42
2019-03-01T18:25:00.776Z,97226.08
2019-03-01T18:27:27.424Z,97230.13
2019-03-01T18:29:54.219Z,97231.79
2019-03-01T18:32:20.936Z,97230.67
2019-03-01T18:34:47.611Z,97237.20
2019-03-01T18:37:19.397Z,97234.77
2019-03-01T18:39:42.903Z,97238.28
2019-03-01T18:42:09.542Z,97238.28
2019-03-01T18:44:36.245Z,97241.80
2019-03-01T18:47:02.998Z,97245.86
2019-03-01T18:49:29.679Z,97250.19
2019-03-01T18:51:56.312Z,97258.03
2019-03-01T18:54:23.156Z,97255.87
2019-03-01T18:56:49.808Z,97261.27
2019-03-01T18:59:16.352Z,97270.20
2019-03-01T19:01:46.380Z,97266.14
2019-03-01T19:04:13.006Z,97264.52
2019-03-01T19:06:39.801Z,97267.49
2019-03-01T19:09:07.035Z,97272.09
2019-03-01T19:11:34.674Z,97272.63
2019-03-01T19:14:02.676Z,97279.41
2019-03-01T19:16:29.474Z,97262.08
2019-03-01T19:18:56.041Z,97267.76
2019-03-01T19:21:22.589Z,97270.19
2019-03-01T19:23:49.129Z,97275.33
2019-03-01T19:26:15.776Z,97281.28
2019-03-01T19:28:44.876Z,97281.58
2019-03-01T19:31:11.548Z,97279.11
2019-03-01T19:33:41.439Z,97279.41
2019-03-01T19:36:06.748Z,97281.84
2019-03-01T19:38:33.606Z,97290.48
2019-03-01T19:41:00.244Z,97292.39
2019-03-01T19:43:26.870Z,97296.72
2019-03-01T19:45:53.546Z,97297.80
2019-03-01T19:48:20.311Z,97294.83
2019-03-01T19:50:46.958Z,97298.06
2019-03-01T19:53:13.699Z,97300.48
2019-03-01T19:55:40.340Z,97288.58
2019-03-01T19:58:08.684Z,97299.68
2019-03-01T20:00:35.580Z,97301.30
2019-03-01T20:03:02.136Z,97299.95
2019-03-01T20:05:31.654Z,97303.47
2019-03-01T20:07:57.534Z,97305.36
2019-03-01T20:10:24.163Z,97312.12
2019-03-01T20:12:50.949Z,97306.70
2019-03-01T20:15:20.620Z,97319.16
2019-03-01T20:17:47.550Z,97320.78
2019-03-01T20:20:15.395Z,97320.78
2019-03-01T20:22:42.178Z,97318.34
2019-03-01T20:25:12.813Z,97321.59
2019-03-01T20:27:39.077Z,97320.52
2019-03-01T20:30:10.363Z,97332.16
2019-03-01T20:32:37.188Z,97329.98
2019-03-01T20:35:05.308Z,97332.42
2019-03-01T20:37:32.209Z,97329.45
2019-03-01T20:39:59.029Z,97330.26
2019-03-01T20:42:25.657Z,97334.86
2019-03-01T20:44:53.093Z,97340.81
2019-03-01T20:47:20.511Z,97340.53
2019-03-01T20:49:47.342Z,97338.91
2019-03-01T20:52:14.493Z,97343.52
2019-03-01T20:54:41.169Z,97345.39
2019-03-01T20:57:07.816Z,97350.00
2019-03-01T20:59:34.353Z,97348.92
2019-03-01T21:02:01.646Z,97354.34
2019-03-01T21:04:28.434Z,97347.84
2019-03-01T21:06:54.976Z,97356.48
2019-03-01T21:09:21.798Z,97358.11
2019-03-01T21:11:48.530Z,97356.22
2019-03-01T21:14:15.225Z,97349.45
2019-03-01T21:16:44.790Z,97358.92
2019-03-01T21:19:10.578Z,97347.83
2019-03-01T21:21:39.678Z,97354.59
2019-03-01T21:24:06.398Z,97354.05
2019-03-01T21:26:35.002Z,97357.84
2019-03-01T21:29:08.938Z,97359.45
2019-03-01T21:31:36.891Z,97368.11
2019-03-01T21:34:03.777Z,97365.95
2019-03-01T21:36:30.725Z,97363.22
2019-03-01T21:38:57.411Z,97367.47
2019-03-01T21:41:24.185Z,97375.59
2019-03-01T21:43:50.978Z,97377.48
2019-03-01T21:46:17.752Z,97386.08
2019-03-01T21:48:44.498Z,97387.95
2019-03-01T21:51:11.306Z,97386.32
2019-03-01T21:53:39.775Z,97388.19
2019-03-01T21:56:08.607Z,97391.12
2019-03-01T21:58:38.530Z,97389.77
2019-03-01T22:01:05.871Z,97403.56
2019-03-01T22:03:32.389Z,97401.11
2019-03-01T22:05:58.965Z,97397.59
2019-03-01T22:08:25.647Z,97400.23
2019-03-01T22:10:52.296Z,97403.17
2019-03-01T22:13:19.019Z,97412.33
2019-03-01T22:15:46.706Z,97407.45
2019-03-01T22:18:13.448Z,97406.84
2019-03-01T22:20:41.528Z,97412.75
2019-03-01T22:23:13.461Z,97415.15
2019-03-01T22:25:39.070Z,97415.89
2019-03-01T22:28:06.024Z,97418.00
2019-03-01T22:30:32.762Z,97413.09
2019-03-01T22:32:59.454Z,97413.03
2019-03-01T22:35:26.214Z,97417.33
2019-03-01T22:37:53.045Z,97413.52
2019-03-01T22:40:19.805Z,97421.86
2019-03-01T22:42:49.706Z,97419.98
2019-03-01T22:45:16.207Z,97414.05
2019-03-01T22:47:48.749Z,97418.09
2019-03-01T22:50:15.641Z,97420.27
2019-03-01T22:52:42.404Z,97424.33
2019-03-01T22:55:10.254Z,97419.98
2019-03-01T22:57:37.016Z,97422.17
2019-03-01T23:00:06.972Z,97427.56
2019-03-01T23:02:33.630Z,97420.49
2019-03-01T23:05:00.449Z,97426.47
2019-03-01T23:07:28.853Z,97428.30
2019-03-01T23:09:55.545Z,97419.66
2019-03-01T23:12:23.258Z,97426.13
2019-03-01T23:14:49.964Z,97428.56
2019-03-01T23:17:16.614Z,97435.03
2019-03-01T23:19:43.275Z,97432.87
2019-03-01T23:22:10.998Z,97430.14
2019-03-01T23:24:38.550Z,97432.05
2019-03-01T23:27:05.234Z,97431.49
2019-03-01T23:29:33.014Z,97432.08
2019-03-01T23:32:00.734Z,97436.12
2019-03-01T23:34:27.274Z,97436.09
2019-03-01T23:36:53.836Z,97444.45
2019-03-01T23:39:21.679Z,97436.07
2019-03-01T23:41:49.445Z,97433.66
2019-03-01T23:44:16.004Z,97442.25
2019-03-01T23:46:42.745Z,97445.77
2019-03-01T23:49:09.681Z,97443.05
2019-03-01T23:51:36.327Z,97441.41
2019-03-01T23:54:05.741Z,97442.53
2019-03-01T23:56:31.921Z,97447.17
2019-03-01T23:58:58.472Z,97446.10
